Terminal Aerodrome Forecast
Issued by NWS Caribou, ME

Home | Current Version | Previous Version | Text Only | Print | Product List | Glossary On
Versions: 1 2 3 4 5 6 7 8 9 10 11 12 13 14 15 16 17 18 19 20
266
FTUS41 KCAR 290225 AAC
TAFCAR
TAF AMD
KCAR 290225Z 2902/2924 17006KT P6SM -SHRA OVC040
      TEMPO 2902/2903 2SM RA BR
     FM290400 18006KT P6SM VCSH SCT007 OVC025
     FM290700 19007KT P6SM OVC007
     FM291300 26009KT P6SM BKN020
     FM291500 28010G16KT P6SM BKN035
     FM292200 33011G18KT P6SM SCT050=

USA.gov is the U.S. government's official web portal to all federal, state and local government web resources and services.